Obelix — 7JAX — position and weather

sailwx.info

Track history (hours):
 
Tides and Currents Weather Stations Pressure Air Temp Water Temp Dewpoint Dewpoint Depression Visibility Wind Speed Wind Dir Waves Ship Positions

Obelix

Last reported at 2016-May-04 20:33 UTC. Time now 2016-May-04 21:05 UTC.
Position N 34°32' E 135°20'.

Length 74 m; draft 4.1 m.

Type: Ship. MMSI: 432528000.

Date/timePositionNaut miles runAvg speedWind from/ knotsBaromVisibWave heightAir tempDewpointWater temp
2016-May-04 20:33N 34°32' E 135°20'0 0.0
2016-May-04 19:21N 34°32' E 135°20'0 0.0
2016-May-04 18:33N 34°32' E 135°20'0 0.0
2016-May-04 17:27N 34°32' E 135°20'0 0.0
2016-May-04 16:33N 34°32' E 135°20'0 0.0
2016-May-04 15:33N 34°32' E 135°20'0 0.0
2016-May-04 14:33N 34°32' E 135°20'0 0.0
2016-May-04 13:33N 34°32' E 135°20'0 0.0
2016-May-04 12:21N 34°32' E 135°20'0 0.0
2016-May-04 11:33N 34°32' E 135°20'0 0.1
2016-May-04 10:33N 34°32' E 135°20'4 3.7
2016-May-04 09:33N 34°33' E 135°15'1212.0
2016-May-04 08:32N 34°37' E 135°01'9 9.6
2016-May-04 07:33N 34°39' E 134°50'9 0.5
2016-May-03 13:29N 34°37' E 135°01'8 8.2
2016-May-03 12:33N 34°30' E 135°04'1412.8
2016-May-03 11:28N 34°17' E 134°59'1213.2
2016-May-03 10:33N 34°05' E 135°00'24210.1
2016-May-02 10:32N 35°09' E 139°44'1111.3
2016-May-02 09:34N 35°20' E 139°42'1111.3
2016-May-02 08:33N 35°29' E 139°51'9 8.8
2016-May-02 07:30N 35°30' E 140°02'0 0.0
2016-May-02 06:24N 35°30' E 140°02'0 0.0
2016-May-02 05:30N 35°30' E 140°02'0 0.0
2016-May-02 04:30N 35°30' E 140°02'0 0.0
2016-May-02 03:33N 35°30' E 140°02'0 0.0
2016-May-02 02:33N 35°30' E 140°02'0 0.0
2016-May-02 01:30N 35°30' E 140°02'0 0.0
2016-May-02 00:30N 35°30' E 140°02'0 0.0
2016-May-01 23:28N 35°30' E 140°02'3 2.9
2016-May-01 22:33N 35°30' E 139°59'3 2.5
2016-May-01 21:23N 35°29' E 139°56'0 0.1
2016-May-01 20:32N 35°29' E 139°56'0 0.0
2016-May-01 19:32N 35°29' E 139°56'0 0.1
2016-May-01 18:32N 35°29' E 139°56'0 0.0
2016-May-01 17:32N 35°29' E 139°56'0 0.0
2016-May-01 16:29N 35°29' E 139°56'0 0.0
2016-May-01 15:29N 35°29' E 139°56'0 0.1
2016-May-01 14:32N 35°29' E 139°56'0 0.0
2016-May-01 13:29N 35°29' E 139°56'0 0.0
2016-May-01 12:32N 35°29' E 139°56'0 0.0
2016-May-01 11:29N 35°29' E 139°56'0 0.0
2016-May-01 10:32N 35°29' E 139°56'0 0.0
2016-May-01 09:26N 35°29' E 139°56'0 0.0
2016-May-01 08:32N 35°29' E 139°56'0 0.0
2016-May-01 07:32N 35°29' E 139°56'0 0.0
2016-May-01 06:32N 35°29' E 139°56'0 0.0
2016-May-01 05:32N 35°29' E 139°56'0 0.0
2016-May-01 04:29N 35°29' E 139°56'0 0.0
2016-May-01 03:29N 35°29' E 139°56'0 0.0
2016-May-01 02:32N 35°29' E 139°56'0 0.0
2016-May-01 01:29N 35°29' E 139°56'0 0.0
2016-May-01 00:32N 35°29' E 139°56'0 0.0
2016-Apr-30 23:29N 35°29' E 139°56'7 7.3
2016-Apr-30 22:33N 35°26' E 139°48'1110.8
2016-Apr-30 21:33N 35°15' E 139°47'1211.6
2016-Apr-30 20:33N 35°04' E 139°42'1512.6
2016-Apr-30 19:23N 34°55' E 139°29'  
2016-Apr-27 08:30N 35°10' E 139°44'1011.0
2016-Apr-27 07:33N 35°20' E 139°43'1110.9
2016-Apr-27 06:33N 35°29' E 139°51'9 3.1
2016-Apr-27 03:32N 35°30' E 140°02'0 0.0
2016-Apr-27 02:23N 35°30' E 140°02'0 0.0
2016-Apr-27 01:29N 35°30' E 140°02'1 1.6
2016-Apr-27 00:33N 35°30' E 140°00'1010.3
2016-Apr-26 23:33N 35°26' E 139°49'1110.7
2016-Apr-26 22:33N 35°16' E 139°47'1211.7
2016-Apr-26 21:31N 35°04' E 139°43'1312.4
2016-Apr-26 20:28N 34°56' E 139°30'1612.5
2016-Apr-26 19:13N 34°46' E 139°15'  
Track history (hours):
 
Tides and Currents Weather Stations Pressure Air Temp Water Temp Dewpoint Dewpoint Depression Visibility Wind Speed Wind Dir Waves Ship Positions

Obelix

Last reported at 2016-May-04 20:33 UTC. Time now 2016-May-04 21:05 UTC.
Position N 34°32' E 135°20'.

Length 74 m; draft 4.1 m.

Type: Ship. MMSI: 432528000.

Date/timePositionNaut miles runAvg speedWind from/ knotsBaromVisibWave heightAir tempDewpointWater temp
2016-May-04 20:33N 34°32' E 135°20'0 0.0
2016-May-04 19:21N 34°32' E 135°20'0 0.0
2016-May-04 18:33N 34°32' E 135°20'0 0.0
2016-May-04 17:27N 34°32' E 135°20'0 0.0
2016-May-04 16:33N 34°32' E 135°20'0 0.0
2016-May-04 15:33N 34°32' E 135°20'0 0.0
2016-May-04 14:33N 34°32' E 135°20'0 0.0
2016-May-04 13:33N 34°32' E 135°20'0 0.0
2016-May-04 12:21N 34°32' E 135°20'0 0.0
2016-May-04 11:33N 34°32' E 135°20'0 0.1
2016-May-04 10:33N 34°32' E 135°20'4 3.7
2016-May-04 09:33N 34°33' E 135°15'1212.0
2016-May-04 08:32N 34°37' E 135°01'9 9.6
2016-May-04 07:33N 34°39' E 134°50'9 0.5
2016-May-03 13:29N 34°37' E 135°01'8 8.2
2016-May-03 12:33N 34°30' E 135°04'1412.8
2016-May-03 11:28N 34°17' E 134°59'1213.2
2016-May-03 10:33N 34°05' E 135°00'24210.1
2016-May-02 10:32N 35°09' E 139°44'1111.3
2016-May-02 09:34N 35°20' E 139°42'1111.3
2016-May-02 08:33N 35°29' E 139°51'9 8.8
2016-May-02 07:30N 35°30' E 140°02'0 0.0
2016-May-02 06:24N 35°30' E 140°02'0 0.0
2016-May-02 05:30N 35°30' E 140°02'0 0.0
2016-May-02 04:30N 35°30' E 140°02'0 0.0
2016-May-02 03:33N 35°30' E 140°02'0 0.0
2016-May-02 02:33N 35°30' E 140°02'0 0.0
2016-May-02 01:30N 35°30' E 140°02'0 0.0
2016-May-02 00:30N 35°30' E 140°02'0 0.0
2016-May-01 23:28N 35°30' E 140°02'3 2.9
2016-May-01 22:33N 35°30' E 139°59'3 2.5
2016-May-01 21:23N 35°29' E 139°56'0 0.1
2016-May-01 20:32N 35°29' E 139°56'0 0.0
2016-May-01 19:32N 35°29' E 139°56'0 0.1
2016-May-01 18:32N 35°29' E 139°56'0 0.0
2016-May-01 17:32N 35°29' E 139°56'0 0.0
2016-May-01 16:29N 35°29' E 139°56'0 0.0
2016-May-01 15:29N 35°29' E 139°56'0 0.1
2016-May-01 14:32N 35°29' E 139°56'0 0.0
2016-May-01 13:29N 35°29' E 139°56'0 0.0
2016-May-01 12:32N 35°29' E 139°56'0 0.0
2016-May-01 11:29N 35°29' E 139°56'0 0.0
2016-May-01 10:32N 35°29' E 139°56'0 0.0
2016-May-01 09:26N 35°29' E 139°56'0 0.0
2016-May-01 08:32N 35°29' E 139°56'0 0.0
2016-May-01 07:32N 35°29' E 139°56'0 0.0
2016-May-01 06:32N 35°29' E 139°56'0 0.0
2016-May-01 05:32N 35°29' E 139°56'0 0.0
2016-May-01 04:29N 35°29' E 139°56'0 0.0
2016-May-01 03:29N 35°29' E 139°56'0 0.0
2016-May-01 02:32N 35°29' E 139°56'0 0.0
2016-May-01 01:29N 35°29' E 139°56'0 0.0
2016-May-01 00:32N 35°29' E 139°56'0 0.0
2016-Apr-30 23:29N 35°29' E 139°56'7 7.3
2016-Apr-30 22:33N 35°26' E 139°48'1110.8
2016-Apr-30 21:33N 35°15' E 139°47'1211.6
2016-Apr-30 20:33N 35°04' E 139°42'1512.6
2016-Apr-30 19:23N 34°55' E 139°29'  
2016-Apr-27 08:30N 35°10' E 139°44'1011.0
2016-Apr-27 07:33N 35°20' E 139°43'1110.9
2016-Apr-27 06:33N 35°29' E 139°51'9 3.1
2016-Apr-27 03:32N 35°30' E 140°02'0 0.0
2016-Apr-27 02:23N 35°30' E 140°02'0 0.0
2016-Apr-27 01:29N 35°30' E 140°02'1 1.6
2016-Apr-27 00:33N 35°30' E 140°00'1010.3
2016-Apr-26 23:33N 35°26' E 139°49'1110.7
2016-Apr-26 22:33N 35°16' E 139°47'1211.7
2016-Apr-26 21:31N 35°04' E 139°43'1312.4
2016-Apr-26 20:28N 34°56' E 139°30'1612.5
2016-Apr-26 19:13N 34°46' E 139°15'  

Dump ship's entire track history